sensor_id;sensor_type;location;lat;lon;timestamp;P1;P2;P0
45700;PMS5003;36277;32.852;-116.998;2023-05-02T00:00:42;1.40;1.40;1.40
45700;PMS5003;36277;32.852;-116.998;2023-05-02T00:03:09;1.00;1.00;1.00
45700;PMS5003;36277;32.852;-116.998;2023-05-02T00:05:36;1.00;1.00;1.00
45700;PMS5003;36277;32.852;-116.998;2023-05-02T00:08:03;2.00;2.00;1.60
45700;PMS5003;36277;32.852;-116.998;2023-05-02T00:10:29;0.00;0.00;0.00
45700;PMS5003;36277;32.852;-116.998;2023-05-02T00:12:55;1.00;1.00;1.00
45700;PMS5003;36277;32.852;-116.998;2023-05-02T00:15:22;2.00;2.00;2.00
45700;PMS5003;36277;32.852;-116.998;2023-05-02T00:17:48;1.00;1.00;1.00
45700;PMS5003;36277;32.852;-116.998;2023-05-02T00:20:14;1.00;1.00;1.00
45700;PMS5003;36277;32.852;-116.998;2023-05-02T00:22:40;1.00;1.00;1.00
45700;PMS5003;36277;32.852;-116.998;2023-05-02T00:25:07;0.40;0.40;0.40
45700;PMS5003;36277;32.852;-116.998;2023-05-02T00:27:33;1.80;1.80;1.60
45700;PMS5003;36277;32.852;-116.998;2023-05-02T00:30:00;1.00;1.00;1.00
45700;PMS5003;36277;32.852;-116.998;2023-05-02T00:32:26;1.00;1.00;1.00
45700;PMS5003;36277;32.852;-116.998;2023-05-02T00:34:52;1.80;1.80;1.40
45700;PMS5003;36277;32.852;-116.998;2023-05-02T00:37:19;2.00;2.00;1.60
45700;PMS5003;36277;32.852;-116.998;2023-05-02T00:39:45;1.20;1.20;1.00
45700;PMS5003;36277;32.852;-116.998;2023-05-02T00:42:11;1.00;1.00;1.00
45700;PMS5003;36277;32.852;-116.998;2023-05-02T00:44:38;2.00;2.00;2.00
45700;PMS5003;36277;32.852;-116.998;2023-05-02T00:47:04;1.00;1.00;1.00
45700;PMS5003;36277;32.852;-116.998;2023-05-02T00:49:30;1.40;1.40;1.00
45700;PMS5003;36277;32.852;-116.998;2023-05-02T00:51:57;1.60;1.60;1.40
45700;PMS5003;36277;32.852;-116.998;2023-05-02T00:54:23;2.40;2.40;2.00
45700;PMS5003;36277;32.852;-116.998;2023-05-02T00:56:49;0.00;0.00;0.00
45700;PMS5003;36277;32.852;-116.998;2023-05-02T00:59:16;2.00;2.00;1.00
45700;PMS5003;36277;32.852;-116.998;2023-05-02T01:04:36;1.00;1.00;0.80
45700;PMS5003;36277;32.852;-116.998;2023-05-02T01:10:03;1.40;1.40;1.00
45700;PMS5003;36277;32.852;-116.998;2023-05-02T01:15:19;2.00;2.00;2.00
45700;PMS5003;36277;32.852;-116.998;2023-05-02T01:17:48;1.60;1.60;1.00
45700;PMS5003;36277;32.852;-116.998;2023-05-02T01:20:18;1.60;1.60;1.00
45700;PMS5003;36277;32.852;-116.998;2023-05-02T01:22:48;1.00;1.00;0.00
45700;PMS5003;36277;32.852;-116.998;2023-05-02T01:30:35;1.20;1.20;1.00
45700;PMS5003;36277;32.852;-116.998;2023-05-02T01:33:07;1.00;1.00;1.00
45700;PMS5003;36277;32.852;-116.998;2023-05-02T01:35:35;1.00;1.00;1.00
45700;PMS5003;36277;32.852;-116.998;2023-05-02T01:38:02;2.00;2.00;2.00
45700;PMS5003;36277;32.852;-116.998;2023-05-02T01:40:31;1.40;1.40;1.40
45700;PMS5003;36277;32.852;-116.998;2023-05-02T01:42:59;2.40;2.40;1.80
45700;PMS5003;36277;32.852;-116.998;2023-05-02T01:45:29;1.00;1.00;1.00
45700;PMS5003;36277;32.852;-116.998;2023-05-02T01:47:59;1.00;1.00;0.40
45700;PMS5003;36277;32.852;-116.998;2023-05-02T01:50:26;1.40;1.40;0.80
45700;PMS5003;36277;32.852;-116.998;2023-05-02T01:52:53;1.00;1.00;1.00
45700;PMS5003;36277;32.852;-116.998;2023-05-02T01:55:22;1.40;1.40;1.00
45700;PMS5003;36277;32.852;-116.998;2023-05-02T01:57:50;1.20;1.20;1.00
45700;PMS5003;36277;32.852;-116.998;2023-05-02T02:00:19;2.00;2.00;2.00
45700;PMS5003;36277;32.852;-116.998;2023-05-02T02:02:47;1.00;1.00;1.00
45700;PMS5003;36277;32.852;-116.998;2023-05-02T02:05:15;1.60;1.60;1.00
45700;PMS5003;36277;32.852;-116.998;2023-05-02T02:07:44;1.00;1.00;1.00
45700;PMS5003;36277;32.852;-116.998;2023-05-02T02:10:11;1.00;1.00;1.00
45700;PMS5003;36277;32.852;-116.998;2023-05-02T02:17:56;1.20;1.20;1.00
45700;PMS5003;36277;32.852;-116.998;2023-05-02T02:20:28;1.00;1.00;0.60
45700;PMS5003;36277;32.852;-116.998;2023-05-02T02:22:56;0.80;0.80;0.80
45700;PMS5003;36277;32.852;-116.998;2023-05-02T02:25:26;1.00;1.00;1.00
45700;PMS5003;36277;32.852;-116.998;2023-05-02T02:27:53;2.00;2.00;1.80
45700;PMS5003;36277;32.852;-116.998;2023-05-02T02:30:19;0.40;0.40;0.40
45700;PMS5003;36277;32.852;-116.998;2023-05-02T02:32:46;1.60;1.60;1.60
45700;PMS5003;36277;32.852;-116.998;2023-05-02T02:35:12;1.60;1.60;1.40
45700;PMS5003;36277;32.852;-116.998;2023-05-02T02:37:45;1.00;1.00;1.00
45700;PMS5003;36277;32.852;-116.998;2023-05-02T02:50:42;1.20;1.20;1.00
45700;PMS5003;36277;32.852;-116.998;2023-05-02T02:53:24;1.20;1.20;1.00
45700;PMS5003;36277;32.852;-116.998;2023-05-02T02:55:59;1.00;1.00;1.00
45700;PMS5003;36277;32.852;-116.998;2023-05-02T02:58:35;0.20;0.20;0.00
45700;PMS5003;36277;32.852;-116.998;2023-05-02T03:01:26;1.00;1.00;1.00
45700;PMS5003;36277;32.852;-116.998;2023-05-02T03:03:57;1.00;1.00;1.00
45700;PMS5003;36277;32.852;-116.998;2023-05-02T03:06:24;1.20;1.20;1.00
45700;PMS5003;36277;32.852;-116.998;2023-05-02T03:08:51;0.80;0.80;0.00
45700;PMS5003;36277;32.852;-116.998;2023-05-02T03:11:17;2.00;2.00;1.00
45700;PMS5003;36277;32.852;-116.998;2023-05-02T03:13:44;0.40;0.40;0.40
45700;PMS5003;36277;32.852;-116.998;2023-05-02T03:18:55;0.40;0.40;0.20
45700;PMS5003;36277;32.852;-116.998;2023-05-02T03:21:21;1.00;1.00;1.00
45700;PMS5003;36277;32.852;-116.998;2023-05-02T03:23:47;0.00;0.00;0.00
45700;PMS5003;36277;32.852;-116.998;2023-05-02T03:26:14;0.00;0.00;0.00
45700;PMS5003;36277;32.852;-116.998;2023-05-02T03:28:41;0.00;0.00;0.00
45700;PMS5003;36277;32.852;-116.998;2023-05-02T03:31:11;0.00;0.00;0.00
45700;PMS5003;36277;32.852;-116.998;2023-05-02T03:33:38;1.00;1.00;0.80
45700;PMS5003;36277;32.852;-116.998;2023-05-02T03:36:05;0.00;0.00;0.00
45700;PMS5003;36277;32.852;-116.998;2023-05-02T03:38:31;0.00;0.00;0.00
45700;PMS5003;36277;32.852;-116.998;2023-05-02T03:40:57;0.00;0.00;0.00
45700;PMS5003;36277;32.852;-116.998;2023-05-02T03:43:24;0.00;0.00;0.00
45700;PMS5003;36277;32.852;-116.998;2023-05-02T03:45:50;0.00;0.00;0.00
45700;PMS5003;36277;32.852;-116.998;2023-05-02T03:48:17;0.00;0.00;0.00
45700;PMS5003;36277;32.852;-116.998;2023-05-02T03:50:44;0.20;0.20;0.00
45700;PMS5003;36277;32.852;-116.998;2023-05-02T03:53:10;0.00;0.00;0.00
45700;PMS5003;36277;32.852;-116.998;2023-05-02T03:55:39;0.00;0.00;0.00
45700;PMS5003;36277;32.852;-116.998;2023-05-02T03:58:07;0.00;0.00;0.00
45700;PMS5003;36277;32.852;-116.998;2023-05-02T04:00:34;1.00;1.00;1.00
45700;PMS5003;36277;32.852;-116.998;2023-05-02T04:03:01;0.60;0.60;0.00
45700;PMS5003;36277;32.852;-116.998;2023-05-02T04:05:27;0.00;0.00;0.00
45700;PMS5003;36277;32.852;-116.998;2023-05-02T04:07:57;0.00;0.00;0.00
45700;PMS5003;36277;32.852;-116.998;2023-05-02T04:10:23;0.00;0.00;0.00
45700;PMS5003;36277;32.852;-116.998;2023-05-02T04:12:49;0.00;0.00;0.00
45700;PMS5003;36277;32.852;-116.998;2023-05-02T04:15:16;0.00;0.00;0.00
45700;PMS5003;36277;32.852;-116.998;2023-05-02T04:17:42;0.20;0.20;0.20
45700;PMS5003;36277;32.852;-116.998;2023-05-02T04:20:08;1.00;1.00;0.80
45700;PMS5003;36277;32.852;-116.998;2023-05-02T04:22:35;0.00;0.00;0.00
45700;PMS5003;36277;32.852;-116.998;2023-05-02T04:25:04;0.60;0.60;0.20
45700;PMS5003;36277;32.852;-116.998;2023-05-02T04:27:31;0.00;0.00;0.00
45700;PMS5003;36277;32.852;-116.998;2023-05-02T04:29:58;0.00;0.00;0.00
45700;PMS5003;36277;32.852;-116.998;2023-05-02T04:32:24;0.00;0.00;0.00
45700;PMS5003;36277;32.852;-116.998;2023-05-02T04:34:52;0.00;0.00;0.00
45700;PMS5003;36277;32.852;-116.998;2023-05-02T04:37:18;0.00;0.00;0.00
45700;PMS5003;36277;32.852;-116.998;2023-05-02T04:39:44;0.00;0.00;0.00
45700;PMS5003;36277;32.852;-116.998;2023-05-02T04:42:10;0.00;0.00;0.00
45700;PMS5003;36277;32.852;-116.998;2023-05-02T04:44:37;0.00;0.00;0.00
45700;PMS5003;36277;32.852;-116.998;2023-05-02T04:47:03;0.00;0.00;0.00
45700;PMS5003;36277;32.852;-116.998;2023-05-02T04:49:30;0.00;0.00;0.00
45700;PMS5003;36277;32.852;-116.998;2023-05-02T04:51:56;0.00;0.00;0.00
45700;PMS5003;36277;32.852;-116.998;2023-05-02T04:54:23;0.00;0.00;0.00
45700;PMS5003;36277;32.852;-116.998;2023-05-02T04:56:49;0.00;0.00;0.00
45700;PMS5003;36277;32.852;-116.998;2023-05-02T04:59:15;0.00;0.00;0.00
45700;PMS5003;36277;32.852;-116.998;2023-05-02T05:01:42;0.00;0.00;0.00
45700;PMS5003;36277;32.852;-116.998;2023-05-02T05:04:09;0.00;0.00;0.00
45700;PMS5003;36277;32.852;-116.998;2023-05-02T05:06:35;1.00;1.00;1.00
45700;PMS5003;36277;32.852;-116.998;2023-05-02T05:09:02;0.00;0.00;0.00
45700;PMS5003;36277;32.852;-116.998;2023-05-02T05:11:28;0.00;0.00;0.00
45700;PMS5003;36277;32.852;-116.998;2023-05-02T05:13:55;0.00;0.00;0.00
45700;PMS5003;36277;32.852;-116.998;2023-05-02T05:16:22;0.00;0.00;0.00
45700;PMS5003;36277;32.852;-116.998;2023-05-02T05:18:48;0.00;0.00;0.00
45700;PMS5003;36277;32.852;-116.998;2023-05-02T05:21:15;0.00;0.00;0.00
45700;PMS5003;36277;32.852;-116.998;2023-05-02T05:23:41;0.00;0.00;0.00
45700;PMS5003;36277;32.852;-116.998;2023-05-02T05:26:14;0.00;0.00;0.00
45700;PMS5003;36277;32.852;-116.998;2023-05-02T05:28:41;0.00;0.00;0.00
45700;PMS5003;36277;32.852;-116.998;2023-05-02T05:31:09;0.00;0.00;0.00
45700;PMS5003;36277;32.852;-116.998;2023-05-02T05:33:37;0.00;0.00;0.00
45700;PMS5003;36277;32.852;-116.998;2023-05-02T05:36:08;0.00;0.00;0.00
45700;PMS5003;36277;32.852;-116.998;2023-05-02T05:38:35;0.00;0.00;0.00
45700;PMS5003;36277;32.852;-116.998;2023-05-02T05:41:02;0.00;0.00;0.00
45700;PMS5003;36277;32.852;-116.998;2023-05-02T05:43:35;0.20;0.20;0.00
45700;PMS5003;36277;32.852;-116.998;2023-05-02T05:46:01;0.00;0.00;0.00
45700;PMS5003;36277;32.852;-116.998;2023-05-02T05:48:28;0.00;0.00;0.00
45700;PMS5003;36277;32.852;-116.998;2023-05-02T05:50:54;0.00;0.00;0.00
45700;PMS5003;36277;32.852;-116.998;2023-05-02T05:53:20;0.00;0.00;0.00
45700;PMS5003;36277;32.852;-116.998;2023-05-02T05:55:47;0.00;0.00;0.00
45700;PMS5003;36277;32.852;-116.998;2023-05-02T05:58:13;0.00;0.00;0.00
45700;PMS5003;36277;32.852;-116.998;2023-05-02T06:00:39;0.00;0.00;0.00
45700;PMS5003;36277;32.852;-116.998;2023-05-02T06:03:06;1.00;1.00;0.80
45700;PMS5003;36277;32.852;-116.998;2023-05-02T06:05:33;0.00;0.00;0.00
45700;PMS5003;36277;32.852;-116.998;2023-05-02T06:07:59;0.00;0.00;0.00
45700;PMS5003;36277;32.852;-116.998;2023-05-02T06:10:25;0.00;0.00;0.00
45700;PMS5003;36277;32.852;-116.998;2023-05-02T06:12:51;0.00;0.00;0.00
45700;PMS5003;36277;32.852;-116.998;2023-05-02T06:15:18;0.00;0.00;0.00
45700;PMS5003;36277;32.852;-116.998;2023-05-02T06:17:44;0.40;0.40;0.40
45700;PMS5003;36277;32.852;-116.998;2023-05-02T06:20:10;0.00;0.00;0.00
45700;PMS5003;36277;32.852;-116.998;2023-05-02T06:22:37;0.00;0.00;0.00
45700;PMS5003;36277;32.852;-116.998;2023-05-02T06:25:04;0.00;0.00;0.00
45700;PMS5003;36277;32.852;-116.998;2023-05-02T06:27:31;0.00;0.00;0.00
45700;PMS5003;36277;32.852;-116.998;2023-05-02T06:29:57;0.40;0.40;0.00
45700;PMS5003;36277;32.852;-116.998;2023-05-02T06:32:24;0.00;0.00;0.00
45700;PMS5003;36277;32.852;-116.998;2023-05-02T06:34:50;0.00;0.00;0.00
45700;PMS5003;36277;32.852;-116.998;2023-05-02T06:37:16;0.00;0.00;0.00
45700;PMS5003;36277;32.852;-116.998;2023-05-02T06:39:43;0.00;0.00;0.00
45700;PMS5003;36277;32.852;-116.998;2023-05-02T06:42:09;0.00;0.00;0.00
45700;PMS5003;36277;32.852;-116.998;2023-05-02T06:44:35;0.00;0.00;0.00
45700;PMS5003;36277;32.852;-116.998;2023-05-02T06:47:03;0.00;0.00;0.00
45700;PMS5003;36277;32.852;-116.998;2023-05-02T06:49:30;0.00;0.00;0.00
45700;PMS5003;36277;32.852;-116.998;2023-05-02T06:51:57;0.00;0.00;0.00
45700;PMS5003;36277;32.852;-116.998;2023-05-02T06:54:23;0.00;0.00;0.00
45700;PMS5003;36277;32.852;-116.998;2023-05-02T06:56:50;0.00;0.00;0.00
45700;PMS5003;36277;32.852;-116.998;2023-05-02T06:59:16;0.00;0.00;0.00
45700;PMS5003;36277;32.852;-116.998;2023-05-02T07:01:43;0.00;0.00;0.00
45700;PMS5003;36277;32.852;-116.998;2023-05-02T07:04:09;0.00;0.00;0.00
45700;PMS5003;36277;32.852;-116.998;2023-05-02T07:06:35;0.00;0.00;0.00
45700;PMS5003;36277;32.852;-116.998;2023-05-02T07:09:01;0.00;0.00;0.00
45700;PMS5003;36277;32.852;-116.998;2023-05-02T07:11:28;0.00;0.00;0.00
45700;PMS5003;36277;32.852;-116.998;2023-05-02T07:13:54;0.00;0.00;0.00
45700;PMS5003;36277;32.852;-116.998;2023-05-02T07:16:20;0.00;0.00;0.00
45700;PMS5003;36277;32.852;-116.998;2023-05-02T07:18:46;0.00;0.00;0.00
45700;PMS5003;36277;32.852;-116.998;2023-05-02T07:21:13;0.00;0.00;0.00
45700;PMS5003;36277;32.852;-116.998;2023-05-02T07:23:39;0.00;0.00;0.00
45700;PMS5003;36277;32.852;-116.998;2023-05-02T07:26:05;0.00;0.00;0.00
45700;PMS5003;36277;32.852;-116.998;2023-05-02T07:28:32;1.00;1.00;1.00
45700;PMS5003;36277;32.852;-116.998;2023-05-02T07:30:58;0.00;0.00;0.00
45700;PMS5003;36277;32.852;-116.998;2023-05-02T07:33:24;0.00;0.00;0.00
45700;PMS5003;36277;32.852;-116.998;2023-05-02T07:35:51;0.00;0.00;0.00
45700;PMS5003;36277;32.852;-116.998;2023-05-02T07:38:17;0.00;0.00;0.00
45700;PMS5003;36277;32.852;-116.998;2023-05-02T07:40:43;0.00;0.00;0.00
45700;PMS5003;36277;32.852;-116.998;2023-05-02T07:43:12;0.00;0.00;0.00
45700;PMS5003;36277;32.852;-116.998;2023-05-02T07:45:40;0.00;0.00;0.00
45700;PMS5003;36277;32.852;-116.998;2023-05-02T07:48:06;0.00;0.00;0.00
45700;PMS5003;36277;32.852;-116.998;2023-05-02T07:50:32;0.00;0.00;0.00
45700;PMS5003;36277;32.852;-116.998;2023-05-02T07:52:58;0.00;0.00;0.00
45700;PMS5003;36277;32.852;-116.998;2023-05-02T07:55:25;0.20;0.00;0.00
45700;PMS5003;36277;32.852;-116.998;2023-05-02T07:57:51;0.00;0.00;0.00
45700;PMS5003;36277;32.852;-116.998;2023-05-02T08:00:18;0.00;0.00;0.00
45700;PMS5003;36277;32.852;-116.998;2023-05-02T08:02:44;0.00;0.00;0.00
45700;PMS5003;36277;32.852;-116.998;2023-05-02T08:05:10;0.00;0.00;0.00
45700;PMS5003;36277;32.852;-116.998;2023-05-02T08:07:37;0.00;0.00;0.00
45700;PMS5003;36277;32.852;-116.998;2023-05-02T08:10:04;0.00;0.00;0.00
45700;PMS5003;36277;32.852;-116.998;2023-05-02T08:12:31;0.00;0.00;0.00
45700;PMS5003;36277;32.852;-116.998;2023-05-02T08:14:57;0.00;0.00;0.00
45700;PMS5003;36277;32.852;-116.998;2023-05-02T08:17:23;0.00;0.00;0.00
45700;PMS5003;36277;32.852;-116.998;2023-05-02T08:19:50;0.00;0.00;0.00
45700;PMS5003;36277;32.852;-116.998;2023-05-02T08:22:16;0.00;0.00;0.00
45700;PMS5003;36277;32.852;-116.998;2023-05-02T08:24:42;0.00;0.00;0.00
45700;PMS5003;36277;32.852;-116.998;2023-05-02T08:27:08;0.00;0.00;0.00
45700;PMS5003;36277;32.852;-116.998;2023-05-02T08:29:35;0.00;0.00;0.00
45700;PMS5003;36277;32.852;-116.998;2023-05-02T08:32:01;0.00;0.00;0.00
45700;PMS5003;36277;32.852;-116.998;2023-05-02T08:34:27;0.00;0.00;0.00
45700;PMS5003;36277;32.852;-116.998;2023-05-02T08:36:53;0.00;0.00;0.00
45700;PMS5003;36277;32.852;-116.998;2023-05-02T08:39:20;0.00;0.00;0.00
45700;PMS5003;36277;32.852;-116.998;2023-05-02T08:41:46;0.00;0.00;0.00
45700;PMS5003;36277;32.852;-116.998;2023-05-02T08:44:12;0.00;0.00;0.00
45700;PMS5003;36277;32.852;-116.998;2023-05-02T08:46:40;0.00;0.00;0.00
45700;PMS5003;36277;32.852;-116.998;2023-05-02T08:49:09;0.00;0.00;0.00
45700;PMS5003;36277;32.852;-116.998;2023-05-02T08:51:36;0.00;0.00;0.00
45700;PMS5003;36277;32.852;-116.998;2023-05-02T08:54:04;0.00;0.00;0.00
45700;PMS5003;36277;32.852;-116.998;2023-05-02T08:56:33;0.00;0.00;0.00
45700;PMS5003;36277;32.852;-116.998;2023-05-02T08:59:00;0.00;0.00;0.00
45700;PMS5003;36277;32.852;-116.998;2023-05-02T09:01:27;0.00;0.00;0.00
45700;PMS5003;36277;32.852;-116.998;2023-05-02T09:03:55;0.00;0.00;0.00
45700;PMS5003;36277;32.852;-116.998;2023-05-02T09:06:24;0.00;0.00;0.00
45700;PMS5003;36277;32.852;-116.998;2023-05-02T09:08:54;0.00;0.00;0.00
45700;PMS5003;36277;32.852;-116.998;2023-05-02T09:11:23;0.00;0.00;0.00
45700;PMS5003;36277;32.852;-116.998;2023-05-02T09:13:51;0.00;0.00;0.00
45700;PMS5003;36277;32.852;-116.998;2023-05-02T09:18:52;0.00;0.00;0.00
45700;PMS5003;36277;32.852;-116.998;2023-05-02T09:21:23;0.00;0.00;0.00
45700;PMS5003;36277;32.852;-116.998;2023-05-02T09:23:53;0.00;0.00;0.00
45700;PMS5003;36277;32.852;-116.998;2023-05-02T09:26:23;0.00;0.00;0.00
45700;PMS5003;36277;32.852;-116.998;2023-05-02T09:28:55;0.00;0.00;0.00
45700;PMS5003;36277;32.852;-116.998;2023-05-02T09:31:27;0.00;0.00;0.00
45700;PMS5003;36277;32.852;-116.998;2023-05-02T09:33:58;0.00;0.00;0.00
45700;PMS5003;36277;32.852;-116.998;2023-05-02T09:36:40;0.00;0.00;0.00
45700;PMS5003;36277;32.852;-116.998;2023-05-02T09:39:20;0.00;0.00;0.00
45700;PMS5003;36277;32.852;-116.998;2023-05-02T09:41:51;0.00;0.00;0.00
45700;PMS5003;36277;32.852;-116.998;2023-05-02T09:44:19;0.00;0.00;0.00
45700;PMS5003;36277;32.852;-116.998;2023-05-02T09:46:48;1.00;1.00;1.00
45700;PMS5003;36277;32.852;-116.998;2023-05-02T09:49:16;0.00;0.00;0.00
45700;PMS5003;36277;32.852;-116.998;2023-05-02T09:51:43;0.00;0.00;0.00
45700;PMS5003;36277;32.852;-116.998;2023-05-02T09:54:11;0.00;0.00;0.00
45700;PMS5003;36277;32.852;-116.998;2023-05-02T09:56:54;0.00;0.00;0.00
45700;PMS5003;36277;32.852;-116.998;2023-05-02T09:59:21;0.00;0.00;0.00
45700;PMS5003;36277;32.852;-116.998;2023-05-02T10:01:55;0.00;0.00;0.00
45700;PMS5003;36277;32.852;-116.998;2023-05-02T10:04:26;0.00;0.00;0.00
45700;PMS5003;36277;32.852;-116.998;2023-05-02T10:06:54;0.00;0.00;0.00
45700;PMS5003;36277;32.852;-116.998;2023-05-02T10:09:22;0.00;0.00;0.00
45700;PMS5003;36277;32.852;-116.998;2023-05-02T10:11:52;0.00;0.00;0.00
45700;PMS5003;36277;32.852;-116.998;2023-05-02T10:14:20;0.00;0.00;0.00
45700;PMS5003;36277;32.852;-116.998;2023-05-02T10:16:58;0.00;0.00;0.00
45700;PMS5003;36277;32.852;-116.998;2023-05-02T10:19:28;0.00;0.00;0.00
45700;PMS5003;36277;32.852;-116.998;2023-05-02T10:21:58;0.00;0.00;0.00
45700;PMS5003;36277;32.852;-116.998;2023-05-02T10:24:26;0.00;0.00;0.00
45700;PMS5003;36277;32.852;-116.998;2023-05-02T10:26:53;0.00;0.00;0.00
45700;PMS5003;36277;32.852;-116.998;2023-05-02T10:29:20;0.00;0.00;0.00
45700;PMS5003;36277;32.852;-116.998;2023-05-02T10:31:47;0.00;0.00;0.00
45700;PMS5003;36277;32.852;-116.998;2023-05-02T10:34:14;0.00;0.00;0.00
45700;PMS5003;36277;32.852;-116.998;2023-05-02T10:36:43;0.00;0.00;0.00
45700;PMS5003;36277;32.852;-116.998;2023-05-02T10:39:10;0.00;0.00;0.00
45700;PMS5003;36277;32.852;-116.998;2023-05-02T10:41:37;0.00;0.00;0.00
45700;PMS5003;36277;32.852;-116.998;2023-05-02T10:44:05;0.00;0.00;0.00
45700;PMS5003;36277;32.852;-116.998;2023-05-02T10:46:34;0.00;0.00;0.00
45700;PMS5003;36277;32.852;-116.998;2023-05-02T10:51:38;0.00;0.00;0.00
45700;PMS5003;36277;32.852;-116.998;2023-05-02T10:54:18;0.00;0.00;0.00
45700;PMS5003;36277;32.852;-116.998;2023-05-02T10:59:31;0.00;0.00;0.00
45700;PMS5003;36277;32.852;-116.998;2023-05-02T11:02:48;0.00;0.00;0.00
45700;PMS5003;36277;32.852;-116.998;2023-05-02T11:05:02;0.00;0.00;0.00
45700;PMS5003;36277;32.852;-116.998;2023-05-02T11:07:30;0.00;0.00;0.00
45700;PMS5003;36277;32.852;-116.998;2023-05-02T11:12:44;0.00;0.00;0.00
45700;PMS5003;36277;32.852;-116.998;2023-05-02T11:18:08;0.00;0.00;0.00
45700;PMS5003;36277;32.852;-116.998;2023-05-02T11:20:38;0.00;0.00;0.00
45700;PMS5003;36277;32.852;-116.998;2023-05-02T11:25:42;0.00;0.00;0.00
45700;PMS5003;36277;32.852;-116.998;2023-05-02T11:31:01;0.00;0.00;0.00
45700;PMS5003;36277;32.852;-116.998;2023-05-02T11:33:28;0.00;0.00;0.00
45700;PMS5003;36277;32.852;-116.998;2023-05-02T11:35:55;0.00;0.00;0.00
45700;PMS5003;36277;32.852;-116.998;2023-05-02T11:38:22;0.00;0.00;0.00
45700;PMS5003;36277;32.852;-116.998;2023-05-02T11:40:55;0.00;0.00;0.00
45700;PMS5003;36277;32.852;-116.998;2023-05-02T11:43:24;0.00;0.00;0.00
45700;PMS5003;36277;32.852;-116.998;2023-05-02T11:45:52;0.00;0.00;0.00
45700;PMS5003;36277;32.852;-116.998;2023-05-02T11:48:19;0.00;0.00;0.00
45700;PMS5003;36277;32.852;-116.998;2023-05-02T11:50:51;0.00;0.00;0.00
45700;PMS5003;36277;32.852;-116.998;2023-05-02T11:53:28;0.00;0.00;0.00
45700;PMS5003;36277;32.852;-116.998;2023-05-02T11:55:56;0.00;0.00;0.00
45700;PMS5003;36277;32.852;-116.998;2023-05-02T11:58:24;0.00;0.00;0.00
45700;PMS5003;36277;32.852;-116.998;2023-05-02T12:00:57;0.00;0.00;0.00
45700;PMS5003;36277;32.852;-116.998;2023-05-02T12:05:57;0.00;0.00;0.00
45700;PMS5003;36277;32.852;-116.998;2023-05-02T12:08:44;0.00;0.00;0.00
45700;PMS5003;36277;32.852;-116.998;2023-05-02T12:11:13;0.00;0.00;0.00
45700;PMS5003;36277;32.852;-116.998;2023-05-02T12:13:47;0.00;0.00;0.00
45700;PMS5003;36277;32.852;-116.998;2023-05-02T12:16:14;0.00;0.00;0.00
45700;PMS5003;36277;32.852;-116.998;2023-05-02T12:18:41;0.00;0.00;0.00
45700;PMS5003;36277;32.852;-116.998;2023-05-02T12:21:08;0.00;0.00;0.00
45700;PMS5003;36277;32.852;-116.998;2023-05-02T12:23:35;0.00;0.00;0.00
45700;PMS5003;36277;32.852;-116.998;2023-05-02T12:26:15;0.00;0.00;0.00
45700;PMS5003;36277;32.852;-116.998;2023-05-02T12:28:51;0.00;0.00;0.00
45700;PMS5003;36277;32.852;-116.998;2023-05-02T12:31:23;0.00;0.00;0.00
45700;PMS5003;36277;32.852;-116.998;2023-05-02T12:33:52;0.00;0.00;0.00
45700;PMS5003;36277;32.852;-116.998;2023-05-02T12:36:21;0.00;0.00;0.00
45700;PMS5003;36277;32.852;-116.998;2023-05-02T12:38:52;0.00;0.00;0.00
45700;PMS5003;36277;32.852;-116.998;2023-05-02T12:44:01;0.00;0.00;0.00
45700;PMS5003;36277;32.852;-116.998;2023-05-02T12:46:28;0.00;0.00;0.00
45700;PMS5003;36277;32.852;-116.998;2023-05-02T12:49:02;0.00;0.00;0.00
45700;PMS5003;36277;32.852;-116.998;2023-05-02T12:51:38;0.00;0.00;0.00
45700;PMS5003;36277;32.852;-116.998;2023-05-02T12:54:05;0.00;0.00;0.00
45700;PMS5003;36277;32.852;-116.998;2023-05-02T12:56:38;0.00;0.00;0.00
45700;PMS5003;36277;32.852;-116.998;2023-05-02T12:59:05;0.00;0.00;0.00
45700;PMS5003;36277;32.852;-116.998;2023-05-02T13:01:32;0.00;0.00;0.00
45700;PMS5003;36277;32.852;-116.998;2023-05-02T13:03:58;0.00;0.00;0.00
45700;PMS5003;36277;32.852;-116.998;2023-05-02T13:06:25;0.00;0.00;0.00
45700;PMS5003;36277;32.852;-116.998;2023-05-02T13:08:51;0.00;0.00;0.00
45700;PMS5003;36277;32.852;-116.998;2023-05-02T13:11:17;0.00;0.00;0.00
45700;PMS5003;36277;32.852;-116.998;2023-05-02T13:13:44;0.00;0.00;0.00
45700;PMS5003;36277;32.852;-116.998;2023-05-02T13:16:11;0.00;0.00;0.00
45700;PMS5003;36277;32.852;-116.998;2023-05-02T13:18:37;0.00;0.00;0.00
45700;PMS5003;36277;32.852;-116.998;2023-05-02T13:21:03;0.00;0.00;0.00
45700;PMS5003;36277;32.852;-116.998;2023-05-02T13:23:30;0.00;0.00;0.00
45700;PMS5003;36277;32.852;-116.998;2023-05-02T13:25:56;0.00;0.00;0.00
45700;PMS5003;36277;32.852;-116.998;2023-05-02T13:28:22;0.00;0.00;0.00
45700;PMS5003;36277;32.852;-116.998;2023-05-02T13:30:50;0.00;0.00;0.00
45700;PMS5003;36277;32.852;-116.998;2023-05-02T13:33:16;0.00;0.00;0.00
45700;PMS5003;36277;32.852;-116.998;2023-05-02T13:35:42;0.00;0.00;0.00
45700;PMS5003;36277;32.852;-116.998;2023-05-02T13:38:08;0.00;0.00;0.00
45700;PMS5003;36277;32.852;-116.998;2023-05-02T13:40:35;0.00;0.00;0.00
45700;PMS5003;36277;32.852;-116.998;2023-05-02T13:43:01;0.00;0.00;0.00
45700;PMS5003;36277;32.852;-116.998;2023-05-02T13:45:27;0.00;0.00;0.00
45700;PMS5003;36277;32.852;-116.998;2023-05-02T13:47:53;0.00;0.00;0.00
45700;PMS5003;36277;32.852;-116.998;2023-05-02T13:50:20;0.00;0.00;0.00
45700;PMS5003;36277;32.852;-116.998;2023-05-02T13:52:46;0.00;0.00;0.00
45700;PMS5003;36277;32.852;-116.998;2023-05-02T13:55:12;0.00;0.00;0.00
45700;PMS5003;36277;32.852;-116.998;2023-05-02T13:57:38;0.00;0.00;0.00
45700;PMS5003;36277;32.852;-116.998;2023-05-02T14:00:05;0.00;0.00;0.00
45700;PMS5003;36277;32.852;-116.998;2023-05-02T14:02:34;0.00;0.00;0.00
45700;PMS5003;36277;32.852;-116.998;2023-05-02T14:05:01;0.00;0.00;0.00
45700;PMS5003;36277;32.852;-116.998;2023-05-02T14:07:27;0.00;0.00;0.00
45700;PMS5003;36277;32.852;-116.998;2023-05-02T14:09:53;0.00;0.00;0.00
45700;PMS5003;36277;32.852;-116.998;2023-05-02T14:12:20;0.00;0.00;0.00
45700;PMS5003;36277;32.852;-116.998;2023-05-02T14:14:46;0.00;0.00;0.00
45700;PMS5003;36277;32.852;-116.998;2023-05-02T14:17:12;0.00;0.00;0.00
45700;PMS5003;36277;32.852;-116.998;2023-05-02T14:19:38;0.00;0.00;0.00
45700;PMS5003;36277;32.852;-116.998;2023-05-02T14:22:04;0.00;0.00;0.00
45700;PMS5003;36277;32.852;-116.998;2023-05-02T14:24:31;0.00;0.00;0.00
45700;PMS5003;36277;32.852;-116.998;2023-05-02T14:26:58;0.00;0.00;0.00
45700;PMS5003;36277;32.852;-116.998;2023-05-02T14:29:25;0.00;0.00;0.00
45700;PMS5003;36277;32.852;-116.998;2023-05-02T14:31:51;0.00;0.00;0.00
45700;PMS5003;36277;32.852;-116.998;2023-05-02T14:34:18;0.00;0.00;0.00
45700;PMS5003;36277;32.852;-116.998;2023-05-02T14:36:46;0.00;0.00;0.00
45700;PMS5003;36277;32.852;-116.998;2023-05-02T14:39:12;0.00;0.00;0.00
45700;PMS5003;36277;32.852;-116.998;2023-05-02T14:41:38;0.00;0.00;0.00
45700;PMS5003;36277;32.852;-116.998;2023-05-02T14:44:04;0.00;0.00;0.00
45700;PMS5003;36277;32.852;-116.998;2023-05-02T14:46:30;0.00;0.00;0.00